.
WxDataArchive / Data Records for 2011-07-01
2011-06-30 July 2011 2011-07-02

Data Records for Friday, 01 July 2011

Time	Temp	Chill	HIndex	Humid	Dewpt	 Wind 	HiWind	WindDir	Rain 	Barom 
-----	----	-----	------	-----	-----	------	------	-------	-----	----- 
00:00	74.2	74.2	74.2	57	58.0	0	0	---	0.00	29.981 
00:05	74.0	74.0	74.0	57	57.8	0	0	---	0.00	29.981 
00:10	73.7	73.7	73.7	58	58.0	0	0	---	0.00	29.981 
00:15	73.3	73.3	73.3	60	58.6	0	0	---	0.00	29.978 
00:20	73.2	73.2	73.2	59	58.0	0	0	---	0.00	29.978 
00:25	73.0	73.0	73.0	61	58.7	0	1	270	0.00	29.978 
00:30	72.8	72.8	72.8	61	58.6	0	1	270	0.00	29.989 
00:35	72.7	72.7	72.7	60	58.0	0	0	---	0.00	29.989 
00:40	72.8	72.8	72.8	60	58.1	0	0	---	0.00	29.989 
00:45	72.8	72.8	72.8	61	58.6	0	0	---	0.00	30.001 
00:50	72.8	72.8	72.8	62	59.0	0	0	---	0.00	30.001 
00:55	72.7	72.7	72.7	61	58.5	0	0	---	0.00	30.001 
01:00	72.7	72.7	72.7	61	58.5	0	0	---	0.00	30.003 
01:05	72.5	72.5	72.5	61	58.3	0	0	---	0.00	30.003 
01:10	72.5	72.5	72.5	61	58.3	0	0	---	0.00	30.003 
01:15	72.5	72.5	72.5	61	58.3	0	1	270	0.00	29.994 
01:20	72.5	72.5	72.5	62	58.7	0	0	---	0.00	29.994 
01:25	72.3	72.3	72.3	62	58.5	0	0	---	0.00	29.994 
01:30	72.1	72.1	72.1	62	58.3	0	0	---	0.00	29.975 
01:35	72.0	72.0	72.0	62	58.3	0	0	---	0.00	29.975 
01:40	71.8	71.8	71.8	62	58.1	0	0	---	0.00	29.975 
01:45	71.8	71.8	71.8	63	58.5	0	0	---	0.00	29.974 
01:50	71.6	71.6	71.6	63	58.3	0	0	---	0.00	29.974 
01:55	71.5	71.5	71.5	63	58.2	0	0	---	0.00	29.974 
02:00	71.3	71.3	71.3	63	58.0	0	0	---	0.00	29.970 
02:05	71.3	71.3	71.3	65	58.9	0	0	---	0.00	29.970 
02:10	71.1	71.1	71.1	65	58.7	0	0	---	0.00	29.970 
02:15	70.9	70.9	70.9	65	58.5	0	0	---	0.00	29.975 
02:20	70.9	70.9	70.9	66	59.0	0	0	---	0.00	29.975 
02:25	70.8	70.8	70.8	66	58.9	0	0	---	0.00	29.975 
02:30	70.8	70.8	70.8	67	59.3	0	0	---	0.00	29.961 
02:35	70.6	70.6	70.6	67	59.1	0	0	---	0.00	29.961 
02:40	70.6	70.6	70.6	68	59.5	0	0	---	0.00	29.961 
02:45	70.4	70.4	70.4	68	59.3	0	0	---	0.00	29.958 
02:50	70.3	70.3	70.3	69	59.6	0	0	---	0.00	29.958 
02:55	70.4	70.4	70.4	68	59.3	0	1	270	0.00	29.958 
03:00	70.6	70.6	70.6	68	59.5	0	0	---	0.00	29.959 
03:05	70.6	70.6	70.6	68	59.5	0	0	---	0.00	29.959 
03:10	70.6	70.6	70.6	68	59.5	0	0	---	0.00	29.959 
03:15	70.6	70.6	70.6	68	59.5	0	0	---	0.00	29.941 
03:20	70.6	70.6	70.6	68	59.5	0	0	---	0.00	29.941 
03:25	70.8	70.8	70.8	68	59.7	0	1	270	0.00	29.941 
03:30	70.8	70.8	70.8	67	59.3	0	1	270	0.00	29.972 
03:35	70.8	70.8	70.8	67	59.3	0	1	270	0.00	29.972 
03:40	70.6	70.6	70.6	68	59.5	0	1	270	0.00	29.972 
03:45	70.4	70.4	70.4	68	59.3	0	1	270	0.00	29.925 
03:50	70.3	70.3	70.3	68	59.2	0	1	270	0.00	29.925 
03:55	70.1	70.1	70.1	69	59.4	0	0	---	0.00	29.925 
04:00	69.9	69.9	69.9	70	59.7	0	0	---	0.00	29.958 
04:05	69.8	69.8	69.8	70	59.6	0	0	---	0.00	29.958 
04:10	69.8	69.8	69.8	71	60.0	0	0	---	0.00	29.958 
04:15	69.4	69.4	69.4	72	60.0	0	0	---	0.00	29.970 
04:20	69.3	69.3	69.3	72	59.9	0	0	---	0.00	29.970 
04:25	68.9	68.9	68.9	73	59.9	0	0	---	0.00	29.970 
04:30	68.6	68.6	68.6	74	60.0	0	0	---	0.00	29.974 
04:35	68.4	68.4	68.4	75	60.2	0	0	---	0.00	29.974 
04:40	68.1	68.1	68.1	76	60.2	0	0	---	0.00	29.974 
04:45	67.9	67.9	67.9	77	60.4	0	0	---	0.00	29.982 
04:50	67.6	67.6	67.6	77	60.1	0	0	---	0.00	29.982 
04:55	67.4	67.4	67.4	77	59.9	0	0	---	0.00	29.982 
05:00	67.3	67.3	67.3	78	60.2	0	1	270	0.00	29.992 
05:05	67.1	67.1	67.1	78	60.0	0	0	---	0.00	29.992 
05:10	66.9	66.9	66.9	79	60.2	0	0	---	0.00	29.992 
05:15	66.8	66.8	66.8	79	60.1	0	0	---	0.00	30.000 
05:20	66.6	66.6	66.6	80	60.2	0	0	---	0.00	30.000 
05:25	66.6	66.6	66.6	80	60.2	0	1	270	0.00	30.000 
05:30	66.6	66.6	66.6	79	59.9	0	0	---	0.00	29.998 
05:35	66.6	66.6	66.6	79	59.9	0	0	---	0.00	29.998 
05:40	66.6	66.6	66.6	79	59.9	0	0	---	0.00	29.998 
05:45	66.4	66.4	66.4	79	59.7	0	0	---	0.00	29.997 
05:50	66.3	66.3	66.3	80	59.9	0	0	---	0.00	29.997 
05:55	66.0	66.0	66.0	80	59.6	0	0	---	0.00	29.997 
06:00	65.8	65.8	65.8	81	59.8	0	0	---	0.00	30.004 
06:05	65.6	65.6	65.6	81	59.6	0	0	---	0.00	30.004 
06:10	65.6	65.6	65.6	81	59.6	0	0	---	0.00	30.004 
06:15	65.5	65.5	65.5	82	59.9	0	0	---	0.00	30.011 
06:20	65.3	65.3	65.3	82	59.7	0	0	---	0.00	30.011 
06:25	65.2	65.2	65.2	83	59.9	0	0	---	0.00	30.011 
06:30	65.0	65.0	65.0	83	59.7	0	0	---	0.00	30.013 
06:35	65.0	65.0	65.0	83	59.7	0	0	---	0.00	30.013 
06:40	65.0	65.0	65.0	84	60.0	0	0	---	0.00	30.013 
06:45	65.0	65.0	65.0	84	60.0	0	0	---	0.00	30.018 
06:50	65.0	65.0	65.0	84	60.0	0	0	---	0.00	30.018 
06:55	65.2	65.2	65.2	85	60.6	0	0	---	0.00	30.018 
07:00	65.3	65.3	65.3	85	60.7	0	0	---	0.00	30.015 
07:05	65.6	65.6	65.6	85	61.0	0	1	270	0.00	30.015 
07:10	66.0	66.0	66.0	85	61.4	0	0	---	0.00	30.015 
07:15	66.3	66.3	66.3	84	61.3	0	0	---	0.00	30.015 
07:20	66.8	66.8	66.8	84	61.8	0	1	270	0.00	30.015 
07:25	67.3	67.3	67.3	84	62.3	0	0	---	0.00	30.015 
07:30	67.8	67.8	67.8	83	62.4	0	0	---	0.00	30.013 
07:35	68.3	68.3	68.3	82	62.6	0	0	---	0.00	30.013 
07:40	68.9	68.9	68.9	81	62.8	0	0	---	0.00	30.013 
07:45	69.6	69.6	69.6	80	63.1	0	1	338	0.00	30.023 
07:50	70.3	70.3	70.3	79	63.5	0	0	---	0.00	30.023 
07:55	70.8	70.8	70.8	77	63.2	0	1	90	0.00	30.023 
08:00	71.3	71.3	71.3	76	63.3	0	0	---	0.00	30.010 
08:05	72.0	72.0	72.0	76	64.0	0	0	---	0.00	30.010 
08:10	72.3	72.3	72.3	74	63.5	0	0	---	0.00	30.010 
08:15	72.7	72.7	72.7	73	63.5	0	0	---	0.00	30.007 
08:20	73.2	73.2	73.2	73	64.0	0	0	---	0.00	30.007 
08:25	73.5	73.5	73.5	72	63.9	0	0	---	0.00	30.007 
08:30	73.9	73.9	73.9	70	63.5	0	0	---	0.00	30.000 
08:35	74.0	74.0	74.0	69	63.2	0	0	---	0.00	30.000 
08:40	74.4	74.4	74.4	68	63.1	0	1	112	0.00	30.000 
08:45	74.7	74.7	74.7	67	63.0	0	1	112	0.00	30.004 
08:50	76.0	76.0	77.9	65	63.4	0	1	112	0.00	30.004 
08:55	76.8	76.8	78.6	62	62.8	0	1	112	0.00	30.004 
09:00	77.6	77.6	79.4	62	63.5	0	0	---	0.00	30.004 
09:05	77.7	77.7	79.4	60	62.7	0	1	112	0.00	30.004 
09:10	78.3	78.3	80.0	61	63.7	0	2	112	0.00	30.004 
09:15	78.5	78.5	80.0	58	62.5	0	2	112	0.00	30.016 
09:20	78.5	78.5	80.1	59	63.0	0	1	112	0.00	30.016 
09:25	79.0	79.0	80.5	57	62.4	0	2	112	0.00	30.016 
09:30	79.2	79.2	80.7	57	62.6	1	3	112	0.00	30.013 
09:35	79.4	79.4	80.9	58	63.3	0	2	112	0.00	30.013 
09:40	79.4	79.4	80.9	58	63.3	0	3	112	0.00	30.013 
09:45	79.4	79.4	80.9	57	62.8	0	1	112	0.00	30.014 
09:50	79.2	79.2	80.8	59	63.6	0	1	112	0.00	30.014 
09:55	79.2	79.2	80.9	60	64.1	0	1	112	0.00	30.014 
10:00	79.2	79.2	80.7	58	63.1	0	0	---	0.00	30.005 
10:05	79.0	79.0	80.5	58	62.9	0	1	112	0.00	30.005 
10:10	79.0	79.0	80.6	59	63.4	0	0	---	0.00	30.005 
10:15	78.8	78.8	80.3	58	62.8	0	0	---	0.00	30.006 
10:20	78.6	78.6	80.1	58	62.6	0	0	---	0.00	30.006 
10:25	78.1	78.1	79.7	59	62.6	0	0	---	0.00	30.006 
10:30	77.7	77.7	79.3	58	61.7	0	0	---	0.00	30.019 
10:35	77.6	77.6	79.3	60	62.6	0	0	---	0.00	30.019 
10:40	77.4	77.4	79.1	60	62.4	0	0	---	0.00	30.019 
10:45	77.4	77.4	79.2	62	63.3	0	0	---	0.00	30.024 
10:50	77.4	77.4	79.2	62	63.3	0	0	---	0.00	30.024 
10:55	77.2	77.2	78.9	60	62.2	0	0	---	0.00	30.024 
11:00	77.0	77.0	78.8	61	62.5	0	0	---	0.00	30.025 
11:05	76.8	76.8	78.6	62	62.8	0	0	---	0.00	30.025 
11:10	76.7	76.7	78.5	62	62.7	0	0	---	0.00	30.025 
11:15	76.5	76.5	78.3	63	62.9	0	0	---	0.00	30.027 
11:20	76.5	76.5	78.3	64	63.4	0	0	---	0.00	30.027 
11:25	76.3	76.3	78.2	64	63.2	0	0	---	0.00	30.027 
11:30	76.3	76.3	78.2	64	63.2	0	0	---	0.00	30.031 
11:35	76.1	76.1	77.9	66	63.9	0	0	---	0.00	30.031 
11:40	76.1	76.1	77.9	67	64.3	0	0	---	0.00	30.031 
11:45	76.0	76.0	77.8	66	63.8	0	0	---	0.00	30.040 
11:50	76.0	76.0	77.7	68	64.7	0	0	---	0.00	30.040 
11:55	76.0	76.0	77.7	68	64.7	0	0	---	0.00	30.040 
12:00	75.8	75.8	77.6	67	64.0	0	1	112	0.00	30.029 
12:05	75.8	75.8	77.6	68	64.5	0	2	112	0.00	30.029 
12:10	75.8	75.8	77.6	68	64.5	1	2	112	0.00	30.029 
12:15	75.8	75.8	77.6	68	64.5	0	1	112	0.00	30.028 
12:20	75.8	75.8	77.6	68	64.5	0	1	292	0.00	30.028 
12:25	75.8	75.8	77.6	68	64.5	0	2	292	0.00	30.028 
12:30	76.0	76.0	77.8	67	64.2	1	3	292	0.00	30.034 
12:35	76.1	76.1	77.9	66	63.9	0	1	292	0.00	30.034 
12:40	76.1	76.1	77.9	67	64.3	0	0	---	0.00	30.034 
12:45	76.1	76.1	77.9	67	64.3	1	3	292	0.00	30.042 
12:50	76.1	76.1	77.9	67	64.3	1	2	292	0.00	30.042 
12:55	76.1	76.1	77.9	67	64.3	1	4	270	0.00	30.042 
13:00	76.0	76.0	77.7	68	64.7	2	4	270	0.00	30.041 
13:05	75.8	75.8	77.6	68	64.5	2	4	292	0.00	30.041 
13:10	75.8	75.8	77.5	69	64.9	1	3	292	0.00	30.041 
13:15	75.8	75.8	77.5	69	64.9	1	4	292	0.00	30.043 
13:20	76.0	76.0	77.7	69	65.1	1	4	292	0.00	30.043 
13:25	76.0	76.0	77.7	69	65.1	2	4	292	0.00	30.043 
13:30	76.0	76.0	77.7	69	65.1	1	2	292	0.00	30.041 
13:35	76.0	76.0	77.8	67	64.2	2	4	315	0.00	30.041 
13:40	75.8	75.8	77.6	67	64.0	2	4	292	0.00	30.041 
13:45	76.0	76.0	77.7	68	64.7	1	3	292	0.00	30.029 
13:50	76.1	76.1	77.9	66	63.9	1	4	292	0.00	30.029 
13:55	76.5	76.5	78.3	65	63.8	1	3	292	0.00	30.029 
14:00	76.7	76.7	78.5	66	64.5	1	3	292	0.00	30.026 
14:05	76.8	76.8	78.6	65	64.1	1	3	315	0.00	30.026 
14:10	77.2	77.2	79.0	63	63.6	2	4	315	0.00	30.026 
14:15	77.4	77.4	79.2	62	63.3	1	3	292	0.00	30.027 
14:20	77.9	77.9	79.6	62	63.8	1	3	292	0.00	30.027 
14:25	78.3	78.3	80.0	61	63.7	1	3	292	0.00	30.027 
14:30	78.3	78.3	80.0	61	63.7	1	2	315	0.00	30.024 
14:35	78.5	78.5	80.2	61	63.9	0	2	315	0.00	30.024 
14:40	78.8	78.8	80.5	60	63.7	0	1	315	0.00	30.024 
14:45	78.8	78.8	80.4	59	63.2	0	1	225	0.00	30.019 
14:50	79.0	79.0	80.6	59	63.4	0	1	225	0.00	30.019 
14:55	79.2	79.2	80.9	60	64.1	0	1	225	0.00	30.019 
15:00	79.6	79.6	81.3	60	64.5	0	1	225	0.00	30.018 
15:05	79.6	79.6	81.3	59	64.0	1	2	225	0.00	30.018 
15:10	79.6	79.6	81.3	59	64.0	1	3	270	0.00	30.018 
15:15	79.4	79.4	81.0	59	63.8	0	1	270	0.00	30.011 
15:20	79.6	79.6	81.3	59	64.0	0	2	270	0.00	30.011 
15:25	79.8	79.8	81.6	60	64.7	0	1	270	0.00	30.011 
15:30	79.6	79.6	81.3	60	64.5	0	1	270	0.00	30.014 
15:35	79.6	79.6	81.3	60	64.5	0	1	270	0.00	30.014 
15:40	79.6	79.6	81.3	59	64.0	0	1	270	0.00	30.014 
15:45	79.6	79.6	81.2	58	63.5	0	2	270	0.00	30.015 
15:50	79.4	79.4	81.0	59	63.8	1	2	270	0.00	30.015 
15:55	79.4	79.4	81.2	61	64.8	0	0	---	0.00	30.015 
16:00	79.4	79.4	81.3	62	65.2	0	0	---	0.00	30.012 
16:05	79.4	79.4	81.3	62	65.2	0	2	270	0.00	30.012 
16:10	79.4	79.4	81.3	62	65.2	0	1	248	0.00	30.012 
16:15	79.2	79.2	81.0	61	64.6	0	2	248	0.00	30.019 
16:20	79.2	79.2	81.0	61	64.6	0	1	248	0.00	30.019 
16:25	79.2	79.2	81.1	62	65.0	0	1	248	0.00	30.019 
16:30	79.2	79.2	81.1	63	65.5	0	1	248	0.00	30.011 
16:35	79.2	79.2	81.1	62	65.0	0	1	248	0.00	30.011 
16:40	79.0	79.0	80.8	62	64.8	0	1	248	0.00	30.011 
16:45	79.2	79.2	81.1	63	65.5	0	0	---	0.00	30.011 
16:50	79.4	79.4	81.4	63	65.7	0	0	---	0.00	30.011 
16:55	79.4	79.4	81.3	62	65.2	0	0	---	0.00	30.011 
17:00	79.6	79.6	81.6	63	65.9	0	0	---	0.00	30.010 
17:05	79.6	79.6	81.5	62	65.4	0	0	---	0.00	30.010 
17:10	79.6	79.6	81.5	62	65.4	0	0	---	0.00	30.010 
17:15	79.8	79.8	81.9	63	66.1	0	0	---	0.00	30.011 
17:20	79.6	79.6	81.6	63	65.9	0	0	---	0.00	30.011 
17:25	79.6	79.6	81.3	60	64.5	0	0	---	0.00	30.011 
17:30	79.6	79.6	81.3	59	64.0	0	0	---	0.00	30.000 
17:35	79.6	79.6	81.2	58	63.5	0	0	---	0.00	30.000 
17:40	79.9	79.9	81.6	59	64.3	0	0	---	0.00	30.000 
17:45	80.1	80.1	81.8	59	64.5	0	0	---	0.00	29.995 
17:50	80.3	80.3	82.1	59	64.6	0	0	---	0.00	29.995 
17:55	80.3	80.3	81.9	58	64.2	0	0	---	0.00	29.995 
18:00	80.3	80.3	81.9	58	64.2	0	0	---	0.00	29.997 
18:05	80.3	80.3	82.1	59	64.6	0	0	---	0.00	29.997 
18:10	80.3	80.3	82.1	59	64.6	0	0	---	0.00	29.997 
18:15	80.3	80.3	82.2	60	65.1	0	0	---	0.00	29.995 
18:20	80.3	80.3	82.3	61	65.6	0	0	---	0.00	29.995 
18:25	80.1	80.1	81.9	60	64.9	0	0	---	0.00	29.995 
18:30	80.1	80.1	82.0	61	65.4	0	0	---	0.00	29.982 
18:35	80.1	80.1	82.2	62	65.9	0	0	---	0.00	29.982 
18:40	79.9	79.9	81.9	62	65.7	0	1	248	0.00	29.982 
18:45	79.8	79.8	81.8	62	65.6	0	0	---	0.00	29.979 
18:50	79.6	79.6	81.6	63	65.9	0	0	---	0.00	29.979 
18:55	79.4	79.4	81.4	63	65.7	1	2	248	0.00	29.979 
19:00	79.0	79.0	80.8	62	64.8	1	3	225	0.00	29.966 
19:05	78.8	78.8	80.6	62	64.7	0	2	225	0.00	29.966 
19:10	78.8	78.8	80.7	63	65.1	0	1	225	0.00	29.966 
19:15	78.6	78.6	80.4	63	64.9	0	2	158	0.00	29.964 
19:20	78.6	78.6	80.4	63	64.9	0	2	158	0.00	29.964 
19:25	78.6	78.6	80.5	64	65.4	0	1	158	0.00	29.964 
19:30	78.5	78.5	80.4	64	65.3	0	3	158	0.00	29.963 
19:35	78.5	78.5	80.4	64	65.3	0	2	225	0.00	29.963 
19:40	78.3	78.3	80.2	65	65.5	0	1	225	0.00	29.963 
19:45	78.1	78.1	80.0	66	65.8	0	1	225	0.00	29.972 
19:50	78.1	78.1	80.0	66	65.8	0	2	225	0.00	29.972 
19:55	77.9	77.9	79.8	66	65.6	0	2	225	0.00	29.972 
20:00	77.9	77.9	79.7	65	65.2	0	1	225	0.00	29.980 
20:05	77.9	77.9	79.7	65	65.2	0	1	225	0.00	29.980 
20:10	77.9	77.9	79.7	65	65.2	0	0	---	0.00	29.980 
20:15	77.7	77.7	79.5	65	65.0	0	0	---	0.00	29.972 
20:20	77.7	77.7	79.6	66	65.4	0	0	---	0.00	29.972 
20:25	77.6	77.6	79.4	66	65.3	0	0	---	0.00	29.972 
20:30	77.4	77.4	79.2	66	65.1	0	1	225	0.00	29.984 
20:35	77.4	77.4	79.2	66	65.1	0	1	225	0.00	29.984 
20:40	77.4	77.4	79.2	66	65.1	0	1	225	0.00	29.984 
20:45	77.4	77.4	79.2	66	65.1	0	1	225	0.00	30.001 
20:50	77.2	77.2	79.0	66	64.9	0	1	225	0.00	30.001 
20:55	77.2	77.2	79.0	66	64.9	0	2	225	0.00	30.001 
21:00	77.0	77.0	78.8	67	65.2	0	1	225	0.00	30.004 
21:05	76.8	76.8	78.6	67	65.0	0	1	225	0.00	30.004 
21:10	76.7	76.7	78.5	67	64.9	0	1	225	0.00	30.004 
21:15	76.5	76.5	78.3	68	65.1	0	1	225	0.00	30.005 
21:20	76.3	76.3	78.0	68	64.9	0	0	---	0.00	30.005 
21:25	76.0	76.0	77.7	69	65.1	0	0	---	0.00	30.005 
21:30	75.6	75.6	77.3	69	64.7	0	0	---	0.00	30.006 
21:35	75.4	75.4	77.1	70	64.9	0	0	---	0.00	30.006 
21:40	75.1	75.1	76.7	71	65.0	0	0	---	0.00	30.006 
21:45	74.7	74.7	74.7	72	65.1	0	1	225	0.00	30.006 
21:50	74.6	74.6	74.6	73	65.4	0	1	225	0.00	30.006 
21:55	74.6	74.6	74.6	73	65.4	0	1	225	0.00	30.006 
22:00	74.6	74.6	74.6	73	65.4	0	1	225	0.00	30.006 
22:05	74.4	74.4	74.4	74	65.6	0	1	225	0.00	30.006 
22:10	74.2	74.2	74.2	74	65.4	0	0	---	0.00	30.006 
22:15	74.0	74.0	74.0	75	65.6	0	0	---	0.00	30.010 
22:20	73.9	73.9	73.9	76	65.8	0	0	---	0.00	30.010 
22:25	73.7	73.7	73.7	76	65.6	0	0	---	0.00	30.010 
22:30	73.3	73.3	73.3	76	65.3	0	0	---	0.00	30.008 
22:35	73.2	73.2	73.2	77	65.5	0	0	---	0.00	30.008 
22:40	73.0	73.0	73.0	78	65.7	0	0	---	0.00	30.008 
22:45	72.7	72.7	72.7	78	65.4	0	0	---	0.00	30.009 
22:50	72.5	72.5	72.5	79	65.6	0	0	---	0.00	30.009 
22:55	72.3	72.3	72.3	79	65.4	0	0	---	0.00	30.009 
23:00	72.3	72.3	72.3	79	65.4	0	0	---	0.00	30.008 
23:05	72.1	72.1	72.1	80	65.6	0	0	---	0.00	30.008 
23:10	72.1	72.1	72.1	80	65.6	0	0	---	0.00	30.008 
23:15	72.0	72.0	72.0	80	65.5	0	3	112	0.00	30.005 
23:20	72.0	72.0	72.0	81	65.8	0	1	112	0.00	30.005 
23:25	71.8	71.8	71.8	81	65.6	0	0	---	0.00	30.005 
23:30	71.8	71.8	71.8	81	65.6	0	0	---	0.00	29.999 
23:35	71.6	71.6	71.6	82	65.8	0	0	---	0.00	29.999 
23:40	71.5	71.5	71.5	82	65.7	0	0	---	0.00	29.999 
23:45	71.3	71.3	71.3	82	65.5	0	0	---	0.00	29.995 
23:50	71.3	71.3	71.3	83	65.9	0	0	---	0.00	29.995 
23:55	71.3	71.3	71.3	83	65.9	0	1	112	0.00	29.995 

CoCoRaHS
IN-AL-39
A2 Web Hosting
Creative Commons License
GoDaddy
search engine by freefind advanced

loaded 2018-11-16 01:25:25 • last modified 2010-11-18 10:43:29
Privacy PolicyDisclaimer
• wx.awcolley.com is powered by PmWiki v.2002016 •
• all content (unless otherwise noted) © 2018 A W Colley